createdAt,value
2019-02-23T00:00:13.221Z,99.90
2019-02-23T00:02:40.836Z,99.90
2019-02-23T00:05:09.107Z,99.90
2019-02-23T00:07:37.464Z,99.90
2019-02-23T00:10:07.578Z,99.90
2019-02-23T00:12:35.852Z,99.90
2019-02-23T00:15:05.951Z,99.90
2019-02-23T00:17:34.228Z,99.90
2019-02-23T00:20:02.552Z,99.90
2019-02-23T00:22:30.846Z,99.90
2019-02-23T00:24:59.112Z,99.90
2019-02-23T00:27:27.376Z,99.90
2019-02-23T00:29:55.663Z,99.90
2019-02-23T00:32:23.928Z,99.90
2019-02-23T00:34:52.197Z,99.90
2019-02-23T00:37:20.479Z,99.90
2019-02-23T00:39:48.744Z,99.90
2019-02-23T00:42:17.007Z,99.90
2019-02-23T00:44:45.295Z,99.90
2019-02-23T00:47:13.559Z,99.90
2019-02-23T00:49:41.881Z,99.90
2019-02-23T00:52:10.176Z,99.90
2019-02-23T00:54:38.435Z,99.90
2019-02-23T00:57:06.706Z,99.90
2019-02-23T00:59:34.994Z,99.90
2019-02-23T01:02:03.251Z,99.90
2019-02-23T01:04:31.511Z,99.90
2019-02-23T01:06:59.825Z,99.90
2019-02-23T01:09:28.089Z,99.90
2019-02-23T01:11:56.355Z,99.90
2019-02-23T01:14:24.656Z,99.90
2019-02-23T01:17:05.167Z,99.90
2019-02-23T01:19:33.620Z,99.90
2019-02-23T01:22:01.973Z,99.90
2019-02-23T01:24:30.237Z,99.90
2019-02-23T01:26:58.533Z,99.90
2019-02-23T01:29:26.870Z,99.90
2019-02-23T01:31:55.136Z,99.90
2019-02-23T01:34:23.417Z,99.90
2019-02-23T01:36:51.683Z,99.90
2019-02-23T01:39:20.033Z,99.90
2019-02-23T01:41:48.387Z,99.90
2019-02-23T01:44:16.656Z,99.90
2019-02-23T01:46:44.923Z,99.90
2019-02-23T01:49:13.296Z,99.90
2019-02-23T01:51:41.556Z,99.90
2019-02-23T01:54:09.813Z,99.90
2019-02-23T01:56:38.105Z,99.90
2019-02-23T01:59:06.363Z,99.90
2019-02-23T02:01:34.633Z,99.90
2019-02-23T02:04:03.304Z,99.90
2019-02-23T02:06:33.587Z,99.90
2019-02-23T02:09:01.565Z,99.90
2019-02-23T02:11:29.900Z,99.90
2019-02-23T02:13:58.171Z,99.90
2019-02-23T02:16:26.507Z,99.90
2019-02-23T02:18:54.793Z,99.90
2019-02-23T02:21:23.894Z,99.90
2019-02-23T02:23:52.153Z,99.90
2019-02-23T02:26:20.452Z,99.90
2019-02-23T02:28:48.707Z,99.90
2019-02-23T02:31:16.977Z,99.90
2019-02-23T02:34:18.320Z,99.90
2019-02-23T02:36:46.657Z,99.90
2019-02-23T02:39:14.920Z,99.90
2019-02-23T02:41:43.196Z,99.90
2019-02-23T02:44:11.463Z,99.90
2019-02-23T02:46:39.788Z,99.90
2019-02-23T02:49:08.272Z,99.90
2019-02-23T02:51:36.535Z,99.90
2019-02-23T02:54:04.796Z,99.90
2019-02-23T02:56:33.087Z,99.90
2019-02-23T02:59:01.456Z,99.90
2019-02-23T03:01:29.717Z,99.90
2019-02-23T03:03:58.009Z,99.90
2019-02-23T03:06:26.272Z,99.90
2019-02-23T03:08:54.556Z,99.90
2019-02-23T03:11:22.963Z,99.90
2019-02-23T03:13:51.226Z,99.90
2019-02-23T03:16:19.514Z,99.90
2019-02-23T03:18:47.852Z,99.90
2019-02-23T03:21:16.116Z,99.90
2019-02-23T03:23:44.385Z,99.90
2019-02-23T03:26:12.671Z,99.90
2019-02-23T03:28:40.980Z,99.90
2019-02-23T03:31:09.264Z,99.90
2019-02-23T03:33:37.565Z,99.90
2019-02-23T03:36:05.911Z,99.90
2019-02-23T03:38:44.186Z,99.90
2019-02-23T03:41:12.448Z,99.90
2019-02-23T03:43:40.711Z,99.90
2019-02-23T03:46:09.011Z,99.90
2019-02-23T03:48:37.285Z,99.90
2019-02-23T03:51:05.546Z,99.90
2019-02-23T03:53:33.823Z,99.90
2019-02-23T03:56:02.097Z,99.90
2019-02-23T03:58:30.427Z,99.90
2019-02-23T04:00:58.731Z,99.90
2019-02-23T04:03:27.010Z,99.90
2019-02-23T04:05:55.348Z,99.90
2019-02-23T04:08:23.647Z,99.90
2019-02-23T04:10:51.907Z,99.90
2019-02-23T04:13:20.197Z,99.90
2019-02-23T04:15:48.550Z,99.90
2019-02-23T04:18:16.979Z,99.90
2019-02-23T04:20:45.240Z,99.90
2019-02-23T04:23:13.537Z,99.90
2019-02-23T04:25:41.792Z,99.90
2019-02-23T04:28:10.057Z,99.90
2019-02-23T04:30:38.367Z,99.90
2019-02-23T04:33:06.631Z,99.90
2019-02-23T04:35:34.972Z,99.90
2019-02-23T04:38:03.427Z,99.90
2019-02-23T04:40:31.695Z,99.90
2019-02-23T04:42:59.963Z,99.90
2019-02-23T04:45:28.256Z,99.90
2019-02-23T04:47:57.112Z,99.90
2019-02-23T04:50:25.372Z,99.90
2019-02-23T04:52:53.663Z,99.90
2019-02-23T04:55:21.957Z,99.90
2019-02-23T04:57:50.219Z,99.90
2019-02-23T05:00:18.514Z,99.90
2019-02-23T05:02:46.996Z,99.90
2019-02-23T05:05:15.260Z,99.90
2019-02-23T05:07:43.556Z,99.90
2019-02-23T05:10:11.933Z,99.90
2019-02-23T05:12:40.194Z,99.90
2019-02-23T05:15:09.942Z,99.90
2019-02-23T05:17:38.206Z,99.90
2019-02-23T05:20:06.744Z,99.90
2019-02-23T05:22:35.037Z,99.90
2019-02-23T05:25:03.301Z,99.90
2019-02-23T05:27:31.565Z,99.90
2019-02-23T05:29:59.931Z,99.90
2019-02-23T05:32:28.299Z,99.90
2019-02-23T05:34:56.555Z,99.90
2019-02-23T05:37:24.851Z,99.90
2019-02-23T05:39:53.187Z,99.90
2019-02-23T05:42:21.455Z,99.90
2019-02-23T05:44:49.745Z,99.90
2019-02-23T05:47:18.080Z,99.90
2019-02-23T05:49:46.341Z,99.90
2019-02-23T05:52:14.632Z,99.90
2019-02-23T05:54:42.894Z,99.90
2019-02-23T05:57:11.156Z,99.90
2019-02-23T05:59:39.444Z,99.90
2019-02-23T06:02:07.714Z,99.90
2019-02-23T06:04:35.983Z,99.90
2019-02-23T06:07:04.277Z,99.90
2019-02-23T06:09:32.535Z,99.90
2019-02-23T06:12:00.811Z,99.90
2019-02-23T06:14:29.175Z,99.90
2019-02-23T06:16:57.438Z,99.90
2019-02-23T06:19:25.700Z,99.90
2019-02-23T06:21:54.625Z,99.90
2019-02-23T06:24:23.144Z,99.90
2019-02-23T06:26:51.421Z,99.90
2019-02-23T06:29:19.781Z,99.90
2019-02-23T06:31:48.044Z,99.90
2019-02-23T06:34:16.845Z,99.90
2019-02-23T06:36:45.292Z,99.90
2019-02-23T06:39:13.553Z,99.90
2019-02-23T06:41:41.817Z,99.90
2019-02-23T06:44:10.980Z,99.90
2019-02-23T06:46:39.238Z,99.90
2019-02-23T06:49:07.497Z,99.90
2019-02-23T06:51:35.816Z,99.90
2019-02-23T06:54:04.086Z,99.90
2019-02-23T06:56:32.428Z,99.90
2019-02-23T06:59:00.729Z,99.90
2019-02-23T07:01:28.998Z,99.90
2019-02-23T07:03:57.266Z,99.90
2019-02-23T07:06:25.559Z,99.90
2019-02-23T07:08:53.852Z,99.90
2019-02-23T07:11:22.123Z,99.90
2019-02-23T07:13:50.413Z,99.90
2019-02-23T07:16:18.676Z,99.90
2019-02-23T07:18:46.941Z,99.90
2019-02-23T07:21:15.242Z,99.90
2019-02-23T07:23:43.503Z,99.90
2019-02-23T07:26:11.766Z,99.90
2019-02-23T07:28:40.061Z,99.90
2019-02-23T07:31:08.325Z,99.90
2019-02-23T07:33:36.592Z,99.90
2019-02-23T07:36:04.887Z,99.90
2019-02-23T07:38:35.498Z,99.90
2019-02-23T07:41:15.897Z,99.90
2019-02-23T07:43:44.164Z,99.90
2019-02-23T07:46:12.424Z,99.90
2019-02-23T07:48:40.741Z,99.90
2019-02-23T07:51:09.003Z,99.90
2019-02-23T07:53:37.277Z,99.90
2019-02-23T07:56:05.794Z,99.90
2019-02-23T07:58:34.058Z,99.90
2019-02-23T08:01:02.371Z,99.90
2019-02-23T08:03:30.696Z,99.90
2019-02-23T08:05:58.960Z,99.90
2019-02-23T08:08:27.234Z,99.90
2019-02-23T08:10:55.517Z,99.90
2019-02-23T08:13:23.792Z,99.90
2019-02-23T08:15:52.061Z,99.90
2019-02-23T08:18:20.356Z,99.90
2019-02-23T08:20:48.632Z,99.90
2019-02-23T08:23:16.933Z,99.90
2019-02-23T08:25:45.230Z,99.90
2019-02-23T08:28:13.487Z,99.90
2019-02-23T08:30:41.748Z,99.90
2019-02-23T08:33:10.041Z,99.90
2019-02-23T08:35:38.303Z,99.90
2019-02-23T08:38:06.560Z,99.90
2019-02-23T08:40:34.862Z,99.90
2019-02-23T08:43:03.134Z,99.90
2019-02-23T08:45:31.384Z,99.90
2019-02-23T08:47:59.689Z,99.90
2019-02-23T08:50:27.966Z,99.90
2019-02-23T08:52:56.224Z,99.90
2019-02-23T08:55:24.509Z,99.90
2019-02-23T08:57:52.772Z,99.90
2019-02-23T09:00:21.083Z,99.90
2019-02-23T09:02:49.377Z,99.90
2019-02-23T09:05:17.722Z,99.90
2019-02-23T09:07:46.099Z,99.90
2019-02-23T09:10:15.047Z,99.90
2019-02-23T09:12:43.295Z,99.90
2019-02-23T09:15:11.849Z,99.90
2019-02-23T09:17:40.152Z,99.90
2019-02-23T09:20:12.011Z,99.90
2019-02-23T09:22:40.271Z,99.90
2019-02-23T09:25:29.617Z,99.90
2019-02-23T09:27:57.871Z,99.90
2019-02-23T09:30:26.133Z,99.90
2019-02-23T09:32:55.363Z,99.90
2019-02-23T09:35:23.696Z,99.90
2019-02-23T09:37:51.958Z,99.90
2019-02-23T09:40:20.812Z,99.90
2019-02-23T09:42:49.087Z,99.90
2019-02-23T09:45:17.360Z,99.90
2019-02-23T09:47:45.659Z,99.90
2019-02-23T09:50:13.918Z,99.90
2019-02-23T09:52:42.181Z,99.90
2019-02-23T09:55:10.678Z,99.90
2019-02-23T09:57:38.948Z,99.90
2019-02-23T10:00:10.513Z,99.90
2019-02-23T10:02:38.801Z,99.90
2019-02-23T10:05:28.108Z,99.90
2019-02-23T10:07:56.399Z,99.90
2019-02-23T10:10:24.665Z,99.90
2019-02-23T10:12:52.929Z,99.90
2019-02-23T10:15:21.225Z,99.90
2019-02-23T10:17:49.493Z,99.90
2019-02-23T10:20:17.743Z,99.90
2019-02-23T10:22:46.053Z,99.50
2019-02-23T10:25:14.339Z,99.40
2019-02-23T10:27:42.685Z,99.20
2019-02-23T10:30:16.304Z,98.50
2019-02-23T10:32:44.674Z,97.50
2019-02-23T10:35:47.868Z,97.70
2019-02-23T10:38:16.141Z,97.90
2019-02-23T10:40:44.416Z,97.90
2019-02-23T10:43:12.704Z,97.90
2019-02-23T10:45:40.968Z,97.00
2019-02-23T10:48:09.235Z,97.00
2019-02-23T10:50:37.555Z,94.50
2019-02-23T10:53:05.911Z,94.30
2019-02-23T10:55:34.178Z,94.90
2019-02-23T10:58:02.468Z,95.50
2019-02-23T11:00:30.743Z,94.80
2019-02-23T11:02:59.011Z,94.70
2019-02-23T11:05:27.425Z,94.90
2019-02-23T11:07:55.687Z,94.20
2019-02-23T11:10:24.220Z,94.20
2019-02-23T11:12:52.628Z,94.10
2019-02-23T11:15:21.660Z,94.00
2019-02-23T11:17:50.013Z,94.20
2019-02-23T11:20:18.768Z,93.20
2019-02-23T11:22:47.056Z,92.40
2019-02-23T11:25:15.405Z,91.90
2019-02-23T11:27:43.693Z,90.60
2019-02-23T11:30:33.007Z,89.20
2019-02-23T11:33:01.365Z,87.80
2019-02-23T11:35:29.636Z,87.60
2019-02-23T11:37:57.948Z,88.00
2019-02-23T11:40:26.264Z,87.00
2019-02-23T11:42:54.541Z,86.20
2019-02-23T11:45:22.973Z,82.50
2019-02-23T11:47:51.272Z,81.70
2019-02-23T11:50:19.547Z,84.50
2019-02-23T11:52:47.802Z,85.00
2019-02-23T11:55:16.108Z,85.70
2019-02-23T11:57:44.470Z,85.70
2019-02-23T12:00:14.036Z,82.30
2019-02-23T12:02:52.157Z,80.80
2019-02-23T12:05:12.341Z,79.70
2019-02-23T12:07:40.611Z,78.70
2019-02-23T12:10:12.015Z,78.10
2019-02-23T12:12:59.710Z,76.90
2019-02-23T12:15:28.009Z,76.70
2019-02-23T12:17:56.269Z,78.10
2019-02-23T12:20:24.536Z,78.60
2019-02-23T12:22:52.956Z,76.60
2019-02-23T12:25:21.222Z,77.20
2019-02-23T12:27:49.502Z,78.50
2019-02-23T12:30:17.889Z,80.70
2019-02-23T12:32:46.258Z,80.80
2019-02-23T12:35:14.551Z,80.60
2019-02-23T12:37:42.841Z,81.50
2019-02-23T12:40:11.543Z,82.80
2019-02-23T12:42:39.811Z,84.50
2019-02-23T12:45:12.779Z,84.20
2019-02-23T12:47:41.160Z,85.20
2019-02-23T12:50:11.636Z,83.80
2019-02-23T12:52:40.071Z,84.10
2019-02-23T12:55:09.875Z,83.90
2019-02-23T12:57:38.135Z,84.30
2019-02-23T13:00:17.569Z,83.70
2019-02-23T13:02:45.855Z,83.60
2019-02-23T13:05:14.279Z,83.30
2019-02-23T13:07:42.752Z,82.70
2019-02-23T13:10:12.155Z,83.20
2019-02-23T13:12:49.745Z,83.20
2019-02-23T13:15:27.096Z,83.20
2019-02-23T13:18:19.308Z,81.60
2019-02-23T13:21:19.812Z,80.70
2019-02-23T13:24:30.170Z,81.00
2019-02-23T13:27:10.716Z,80.90
2019-02-23T13:29:57.053Z,80.80
2019-02-23T13:32:51.067Z,80.00
2019-02-23T13:35:54.455Z,80.40
2019-02-23T13:38:58.774Z,79.70
2019-02-23T13:41:30.315Z,79.90
2019-02-23T13:44:10.776Z,78.20
2019-02-23T13:47:00.741Z,79.80
2019-02-23T13:49:35.384Z,79.20
2019-02-23T13:52:41.208Z,80.40
2019-02-23T13:55:38.378Z,80.30
2019-02-23T13:58:32.699Z,80.10
2019-02-23T14:01:20.765Z,80.00
2019-02-23T14:04:23.691Z,80.50
2019-02-23T14:07:04.247Z,79.60
2019-02-23T14:09:38.887Z,80.10
2019-02-23T14:12:19.283Z,78.90
2019-02-23T14:15:11.970Z,78.20
2019-02-23T14:17:52.324Z,78.10
2019-02-23T14:20:38.969Z,77.80
2019-02-23T14:23:33.518Z,77.80
2019-02-23T14:26:20.261Z,77.80
2019-02-23T14:28:58.020Z,78.60
2019-02-23T14:32:02.633Z,77.20
2019-02-23T14:37:54.925Z,76.70
2019-02-23T14:40:29.625Z,77.20
2019-02-23T14:43:19.074Z,76.80
2019-02-23T14:46:26.806Z,77.10
2019-02-23T14:49:31.203Z,76.40
2019-02-23T14:52:19.439Z,76.50
2019-02-23T14:55:00.895Z,76.40
2019-02-23T14:57:44.528Z,76.50
2019-02-23T15:00:36.701Z,76.70
2019-02-23T15:03:42.715Z,75.50
2019-02-23T15:06:16.846Z,76.30
2019-02-23T15:08:48.406Z,76.80
2019-02-23T15:11:32.029Z,77.40
2019-02-23T15:14:27.359Z,77.80
2019-02-23T15:17:19.453Z,77.90
2019-02-23T15:20:24.453Z,77.70
2019-02-23T15:22:58.912Z,77.20
2019-02-23T15:25:49.979Z,77.70
2019-02-23T15:28:47.388Z,78.00
2019-02-23T15:31:59.408Z,78.80
2019-02-23T15:34:40.021Z,79.30
2019-02-23T15:37:17.511Z,79.40
2019-02-23T15:40:10.989Z,80.10
2019-02-23T15:43:02.079Z,79.70
2019-02-23T15:45:49.831Z,80.30
2019-02-23T15:48:45.214Z,80.50
2019-02-23T15:51:13.625Z,80.80
2019-02-23T15:53:41.972Z,79.90
2019-02-23T15:56:10.311Z,80.50
2019-02-23T15:58:38.604Z,80.80
2019-02-23T16:01:06.888Z,81.20
2019-02-23T16:03:35.208Z,81.60
2019-02-23T16:06:03.532Z,81.40
2019-02-23T16:08:31.814Z,81.30
2019-02-23T16:11:00.087Z,81.50
2019-02-23T16:13:28.421Z,81.30
2019-02-23T16:15:56.684Z,81.20
2019-02-23T16:18:25.045Z,81.30
2019-02-23T16:20:53.363Z,81.20
2019-02-23T16:23:21.617Z,81.20
2019-02-23T16:25:49.999Z,81.10
2019-02-23T16:28:18.298Z,81.30
2019-02-23T16:30:46.629Z,80.90
2019-02-23T16:33:14.920Z,81.50
2019-02-23T16:35:45.452Z,81.50
2019-02-23T16:38:13.720Z,82.60
2019-02-23T16:40:42.014Z,82.60
2019-02-23T16:43:10.387Z,82.70
2019-02-23T16:45:38.664Z,82.20
2019-02-23T16:48:06.943Z,82.60
2019-02-23T16:50:35.240Z,82.30
2019-02-23T16:53:03.534Z,82.40
2019-02-23T16:55:31.803Z,82.30
2019-02-23T16:58:00.111Z,84.30
2019-02-23T17:00:28.471Z,83.90
2019-02-23T17:02:56.748Z,83.60
2019-02-23T17:05:25.052Z,83.70
2019-02-23T17:07:53.381Z,83.70
2019-02-23T17:10:21.659Z,84.20
2019-02-23T17:12:50.088Z,84.30
2019-02-23T17:15:18.364Z,84.00
2019-02-23T17:17:46.629Z,84.70
2019-02-23T17:20:14.937Z,84.60
2019-02-23T17:22:43.282Z,85.10
2019-02-23T17:25:11.558Z,85.50
2019-02-23T17:27:39.957Z,85.70
2019-02-23T17:30:08.800Z,85.80
2019-02-23T17:32:37.072Z,86.00
2019-02-23T17:35:06.430Z,86.70
2019-02-23T17:37:34.766Z,86.80
2019-02-23T17:40:03.318Z,86.50
2019-02-23T17:42:31.620Z,86.60
2019-02-23T17:44:59.896Z,86.80
2019-02-23T17:47:28.167Z,86.90
2019-02-23T17:49:56.472Z,87.50
2019-02-23T17:52:24.787Z,88.20
2019-02-23T17:54:54.508Z,88.90
2019-02-23T17:57:23.036Z,90.00
2019-02-23T17:59:51.325Z,90.30
2019-02-23T18:02:19.592Z,90.80
2019-02-23T18:04:47.906Z,91.40
2019-02-23T18:07:16.181Z,91.30
2019-02-23T18:09:44.439Z,91.20
2019-02-23T18:12:12.915Z,91.10
2019-02-23T18:14:41.196Z,91.10
2019-02-23T18:17:09.459Z,91.40
2019-02-23T18:19:37.864Z,91.40
2019-02-23T18:22:06.136Z,91.10
2019-02-23T18:24:34.509Z,90.80
2019-02-23T18:27:02.828Z,90.60
2019-02-23T18:29:31.176Z,90.80
2019-02-23T18:31:59.438Z,91.00
2019-02-23T18:34:31.811Z,91.00
2019-02-23T18:36:59.989Z,91.20
2019-02-23T18:39:28.259Z,91.20
2019-02-23T18:41:56.669Z,91.40
2019-02-23T18:44:25.023Z,91.20
2019-02-23T18:46:53.313Z,91.40
2019-02-23T18:49:21.707Z,91.60
2019-02-23T18:51:50.346Z,92.10
2019-02-23T18:54:18.606Z,92.20
2019-02-23T18:56:46.896Z,92.40
2019-02-23T18:59:15.160Z,92.70
2019-02-23T19:01:43.424Z,92.90
2019-02-23T19:04:12.326Z,93.20
2019-02-23T19:06:40.753Z,93.10
2019-02-23T19:09:09.018Z,93.10
2019-02-23T19:11:37.300Z,93.20
2019-02-23T19:14:05.617Z,93.40
2019-02-23T19:16:33.960Z,93.60
2019-02-23T19:19:02.247Z,93.50
2019-02-23T19:21:30.505Z,93.00
2019-02-23T19:23:58.775Z,92.70
2019-02-23T19:26:27.066Z,92.90
2019-02-23T19:28:55.324Z,93.00
2019-02-23T19:31:23.580Z,93.20
2019-02-23T19:33:51.881Z,93.20
2019-02-23T19:36:20.135Z,93.30
2019-02-23T19:38:48.401Z,93.50
2019-02-23T19:41:16.695Z,93.70
2019-02-23T19:43:44.976Z,94.10
2019-02-23T19:46:13.241Z,94.20
2019-02-23T19:48:41.527Z,94.40
2019-02-23T19:51:09.852Z,94.40
2019-02-23T19:53:38.937Z,94.60
2019-02-23T19:56:07.220Z,94.80
2019-02-23T19:58:35.482Z,94.50
2019-02-23T20:01:03.733Z,94.10
2019-02-23T20:03:32.028Z,94.10
2019-02-23T20:06:00.299Z,94.60
2019-02-23T20:08:28.625Z,94.40
2019-02-23T20:10:57.012Z,94.70
2019-02-23T20:13:25.263Z,95.20
2019-02-23T20:15:53.519Z,94.90
2019-02-23T20:18:21.804Z,94.80
2019-02-23T20:20:50.064Z,94.90
2019-02-23T20:23:18.339Z,95.10
2019-02-23T20:25:46.659Z,95.40
2019-02-23T20:28:15.011Z,95.70
2019-02-23T20:30:43.344Z,95.90
2019-02-23T20:33:11.657Z,95.80
2019-02-23T20:35:39.969Z,95.80
2019-02-23T20:38:08.304Z,95.10
2019-02-23T20:40:36.601Z,94.90
2019-02-23T20:43:04.899Z,94.80
2019-02-23T20:45:33.157Z,94.80
2019-02-23T20:48:01.523Z,94.60
2019-02-23T20:50:29.783Z,94.50
2019-02-23T20:52:58.040Z,94.00
2019-02-23T20:55:26.404Z,93.90
2019-02-23T20:57:54.770Z,93.80
2019-02-23T21:00:23.023Z,93.80
2019-02-23T21:02:51.477Z,94.00
2019-02-23T21:05:20.206Z,94.10
2019-02-23T21:07:48.547Z,94.20
2019-02-23T21:10:16.916Z,94.30
2019-02-23T21:12:45.193Z,94.90
2019-02-23T21:15:13.444Z,95.00
2019-02-23T21:17:41.739Z,95.10
2019-02-23T21:20:10.951Z,95.00
2019-02-23T21:22:39.209Z,95.10
2019-02-23T21:25:08.632Z,95.20
2019-02-23T21:27:36.960Z,95.50
2019-02-23T21:30:08.121Z,95.40
2019-02-23T21:32:36.411Z,95.50
2019-02-23T21:35:06.012Z,95.40
2019-02-23T21:37:34.273Z,95.40
2019-02-23T21:40:02.563Z,95.30
2019-02-23T21:42:30.955Z,95.40
2019-02-23T21:44:59.268Z,95.50
2019-02-23T21:47:27.704Z,95.50
2019-02-23T21:49:55.969Z,95.80
2019-02-23T21:52:24.300Z,95.90
2019-02-23T21:54:52.640Z,96.00
2019-02-23T21:57:22.379Z,96.10
2019-02-23T21:59:50.941Z,96.20
2019-02-23T22:02:19.440Z,96.20
2019-02-23T22:04:47.773Z,96.30
2019-02-23T22:07:16.119Z,96.30
2019-02-23T22:09:44.459Z,96.50
2019-02-23T22:12:12.732Z,96.50
2019-02-23T22:14:41.059Z,96.50
2019-02-23T22:17:09.356Z,96.50
2019-02-23T22:19:37.624Z,96.60
2019-02-23T22:22:05.925Z,96.70
2019-02-23T22:24:34.218Z,96.70
2019-02-23T22:27:02.508Z,96.70
2019-02-23T22:29:30.848Z,96.50
2019-02-23T22:31:59.148Z,96.70
2019-02-23T22:34:27.419Z,96.70
2019-02-23T22:36:55.711Z,97.00
2019-02-23T22:39:24.074Z,97.10
2019-02-23T22:41:52.342Z,97.30
2019-02-23T22:44:20.707Z,97.20
2019-02-23T22:46:49.076Z,97.30
2019-02-23T22:49:17.349Z,97.60
2019-02-23T22:52:10.768Z,97.40
2019-02-23T22:54:39.032Z,97.40
2019-02-23T22:57:07.314Z,97.40
2019-02-23T22:59:47.780Z,97.40
2019-02-23T23:02:16.277Z,97.40
2019-02-23T23:04:44.596Z,97.80
2019-02-23T23:07:12.968Z,98.10
2019-02-23T23:09:41.261Z,98.30
2019-02-23T23:12:09.681Z,98.20
2019-02-23T23:14:37.971Z,98.00
2019-02-23T23:17:06.284Z,98.30
2019-02-23T23:19:34.566Z,98.30
2019-02-23T23:22:02.924Z,98.40
2019-02-23T23:24:31.230Z,98.20
2019-02-23T23:26:59.644Z,98.40
2019-02-23T23:29:28.108Z,98.30
2019-02-23T23:31:56.429Z,98.30
2019-02-23T23:34:24.783Z,98.50
2019-02-23T23:36:53.084Z,98.20
2019-02-23T23:39:21.368Z,98.20
2019-02-23T23:41:51.346Z,98.50
2019-02-23T23:44:19.656Z,98.90
2019-02-23T23:46:48.005Z,98.90
2019-02-23T23:49:16.320Z,98.90
2019-02-23T23:51:44.608Z,98.60
2019-02-23T23:54:12.989Z,98.40
2019-02-23T23:56:41.300Z,98.50
2019-02-23T23:59:09.613Z,98.50
